• Join FlightAware (Why Join?)
  • Login
  • US Flag 
01:37AM EST


 

Airport Tracker/Info


-or-


 

Live Flight TrackerFlight Track Log ✈ EJA122 ✈ 21-Jul-2013 ✈ KGLS - KDAL

Flight Track Log - Related Links

Times and Time Zones

All times are in EDT time to prevent confusion due to time zone crossing. See the EJA122 flight status page for this flight to view local times or setup timezone preferences in your user account.

Time Position Orientation Groundspeed Altitude Reporting Facility
EDT Latitude Longitude Course Direction KTS MPH feet Rate Location/Type
04:40PM 29.2456 -94.9169 264° West 198 228 3,100  Level Houston Center
04:41PM 29.2639 -94.9794 289° West 230 265 4,900 2,341 Climbing Houston Center
04:42PM 29.3300 -95.0336 324° Northwest 263 303 7,900 2,356 Climbing Houston Center
04:43PM 29.3981 -95.0875 325° Northwest 275 316 10,200 1,591 Climbing Houston Center
04:44PM 29.4614 -95.1419 323° Northwest 291 335 11,400 1,276 Climbing Houston Center
04:45PM 29.5294 -95.2156 317° Northwest 328 377 12,900 1,452 Climbing Houston Center
04:46PM 29.6297 -95.2475 345° North 360 414 14,400 1,403 Climbing Houston Center
04:47PM 29.7314 -95.2725 348° North 365 420 15,800 1,355 Climbing Houston Center
04:48PM 29.8300 -95.2964 348° North 362 417 17,200 1,355 Climbing Houston Center
04:49PM 29.9489 -95.3267 348° North 363 418 18,600 1,258 Climbing Houston Center
04:50PM 30.0506 -95.3514 348° North 370 426 19,800 1,210 Climbing Houston Center
04:51PM 30.1544 -95.3783 347° North 379 436 21,100 1,200 Climbing Houston Center
04:52PM 30.2581 -95.4036 348° North 379 436 22,300 1,152 Climbing Houston Center
04:54PM 30.3625 -95.4311 347° North 383 441 23,500 823 Climbing Houston Center
04:55PM 30.4681 -95.4567 348° North 385 443 24,000 242 Climbing Houston Center
04:56PM 30.6039 -95.4908 348° North 414 476 24,000  Level Houston Center
04:57PM 30.7175 -95.5169 349° North 427 491 24,000  Level Houston Center
04:58PM 30.8375 -95.5447 349° North 435 501 24,000  Level Houston Center
04:59PM 30.9600 -95.5711 350° North 442 509 24,000  Level Houston Center
05:00PM 31.1058 -95.6044 349° North 441 507 24,000  Level Houston Center
05:01PM 31.2269 -95.6319 349° North 440 506 24,000  Level Houston Center
05:02PM 31.3486 -95.6611 348° North 441 507 24,000  Level Houston Center
05:03PM 31.4564 -95.7281 332° Northwest 435 501 24,000 -145 Level Houston Center
05:04PM 31.5642 -95.7989 331° Northwest 440 506 23,700 -1,065 Descending Houston Center
05:05PM 31.6717 -95.8714 330° Northwest 441 507 21,800 -1,839 Descending Houston Center
05:06PM 31.7772 -95.9400 331° Northwest 436 502 19,900 -2,081 Descending Houston Center
05:07PM 31.8933 -96.0189 330° Northwest 410 472 17,500 -2,081 Descending Houston Center
05:08PM 31.9903 -96.0833 331° Northwest 400 460 15,600 -1,776 Descending Houston Center
05:09PM 32.0803 -96.1447 330° Northwest 395 455 13,800 -1,824 Descending Houston Center
05:10PM 32.1747 -96.2094 330° Northwest 392 451 11,800 -2,053 Descending Houston Center
05:11PM 32.2500 -96.2500 336° Northwest 311 358 9,900 -2,192 Descending Dallas / Fort Worth TRACON